createdAt,value
2023-05-10T00:00:21.493Z,20.33
2023-05-10T00:02:49.442Z,19.35
2023-05-10T00:05:17.197Z,20.92
2023-05-10T00:07:45.869Z,20.60
2023-05-10T00:10:14.056Z,19.90
2023-05-10T00:12:41.887Z,19.05
2023-05-10T00:15:10.492Z,20.13
2023-05-10T00:17:38.100Z,19.27
2023-05-10T00:23:04.216Z,18.63
2023-05-10T00:25:31.912Z,22.67
2023-05-10T00:27:59.532Z,21.67
2023-05-10T00:30:27.048Z,20.40
2023-05-10T00:32:54.673Z,18.77
2023-05-10T00:35:22.706Z,22.15
2023-05-10T00:37:50.278Z,21.83
2023-05-10T00:40:18.066Z,20.45
2023-05-10T00:42:50.229Z,18.42
2023-05-10T00:45:17.858Z,22.35
2023-05-10T00:47:45.918Z,20.88
2023-05-10T00:50:14.582Z,19.15
2023-05-10T00:52:43.757Z,22.30
2023-05-10T00:55:13.275Z,23.05
2023-05-10T00:57:41.119Z,20.05
2023-05-10T01:00:09.587Z,20.40
2023-05-10T01:02:37.272Z,19.90
2023-05-10T01:05:06.183Z,20.00
2023-05-10T01:07:33.793Z,20.95
2023-05-10T01:10:01.461Z,22.95
2023-05-10T01:12:29.480Z,21.02
2023-05-10T01:14:58.265Z,20.05
2023-05-10T01:17:26.899Z,20.42
2023-05-10T01:19:54.932Z,21.08
2023-05-10T01:22:46.916Z,21.60
2023-05-10T01:25:54.946Z,21.42
2023-05-10T01:29:07.144Z,21.27
2023-05-10T01:32:12.073Z,23.20
2023-05-10T01:34:55.670Z,24.90
2023-05-10T01:37:37.126Z,25.13
2023-05-10T01:40:20.793Z,27.45
2023-05-10T01:43:00.834Z,26.80
2023-05-10T01:45:38.699Z,27.30
2023-05-10T01:48:15.865Z,28.33
2023-05-10T01:50:47.313Z,29.83
2023-05-10T01:53:21.269Z,27.10
2023-05-10T01:55:53.574Z,34.15
2023-05-10T01:58:33.644Z,28.90
2023-05-10T02:01:04.906Z,28.60
2023-05-10T02:03:37.409Z,30.10
2023-05-10T02:06:13.442Z,33.65
2023-05-10T02:08:42.603Z,29.35
2023-05-10T02:11:14.291Z,32.00
2023-05-10T02:13:44.509Z,33.00
2023-05-10T02:16:14.609Z,32.40
2023-05-10T02:18:42.764Z,32.17
2023-05-10T02:21:13.992Z,34.72
2023-05-10T02:23:43.578Z,33.20
2023-05-10T02:26:14.372Z,34.47
2023-05-10T02:28:44.094Z,32.60
2023-05-10T02:31:13.020Z,38.10
2023-05-10T02:33:41.955Z,40.33
2023-05-10T02:36:12.891Z,39.55
2023-05-10T02:38:42.127Z,42.92
2023-05-10T02:41:12.367Z,45.22
2023-05-10T02:43:42.892Z,47.50
2023-05-10T02:46:10.769Z,49.95
2023-05-10T02:48:39.273Z,51.65
2023-05-10T02:51:09.304Z,53.15
2023-05-10T02:53:44.169Z,58.45
2023-05-10T02:56:26.257Z,58.28
2023-05-10T03:01:21.327Z,53.65
2023-05-10T03:03:48.992Z,56.92
2023-05-10T03:06:17.445Z,54.05
2023-05-10T03:08:46.238Z,52.70
2023-05-10T03:11:32.923Z,58.22
2023-05-10T03:14:38.048Z,56.13
2023-05-10T03:17:29.345Z,51.28
2023-05-10T03:20:05.497Z,50.67
2023-05-10T03:22:41.978Z,58.15
2023-05-10T03:25:12.673Z,53.00
2023-05-10T03:27:46.167Z,58.20
2023-05-10T03:30:15.729Z,52.83
2023-05-10T03:32:43.536Z,55.83
2023-05-10T03:35:14.084Z,55.10
2023-05-10T03:37:41.907Z,56.25
2023-05-10T03:40:11.190Z,52.65
2023-05-10T03:42:41.506Z,56.38
2023-05-10T03:45:10.706Z,49.10
2023-05-10T03:47:38.385Z,52.00
2023-05-10T03:50:07.278Z,57.58
2023-05-10T03:52:36.061Z,53.90
2023-05-10T03:55:04.674Z,54.22
2023-05-10T03:57:32.682Z,52.10
2023-05-10T04:00:01.353Z,52.92
2023-05-10T04:02:29.119Z,51.33
2023-05-10T04:04:57.475Z,54.97
2023-05-10T04:07:25.164Z,53.72
2023-05-10T04:09:53.252Z,50.40
2023-05-10T04:12:20.944Z,54.50
2023-05-10T04:14:48.569Z,54.03
2023-05-10T04:17:16.513Z,55.15
2023-05-10T04:19:44.090Z,53.22
2023-05-10T04:22:11.735Z,52.60
2023-05-10T04:24:39.259Z,57.78
2023-05-10T04:27:06.757Z,57.35
2023-05-10T04:29:34.316Z,57.15
2023-05-10T04:32:01.877Z,57.83
2023-05-10T04:34:29.630Z,58.53
2023-05-10T04:36:57.223Z,54.13
2023-05-10T04:39:24.775Z,54.10
2023-05-10T04:41:52.346Z,52.78
2023-05-10T04:44:19.835Z,54.30
2023-05-10T04:46:47.409Z,53.05
2023-05-10T04:49:15.426Z,51.97
2023-05-10T04:51:42.936Z,57.53
2023-05-10T04:54:11.264Z,55.55
2023-05-10T04:56:38.944Z,52.92
2023-05-10T04:59:06.499Z,51.70
2023-05-10T05:01:34.300Z,52.90
2023-05-10T05:04:02.438Z,54.60
2023-05-10T05:06:30.359Z,50.22
2023-05-10T05:08:57.977Z,47.10
2023-05-10T05:11:31.701Z,51.05
2023-05-10T05:14:00.244Z,47.80
2023-05-10T05:16:28.046Z,48.22
2023-05-10T05:18:55.689Z,44.08
2023-05-10T05:21:23.268Z,45.92
2023-05-10T05:23:51.201Z,47.70
2023-05-10T05:26:18.793Z,42.67
2023-05-10T05:28:46.340Z,45.70
2023-05-10T05:31:14.843Z,47.97
2023-05-10T05:33:42.486Z,45.72
2023-05-10T05:36:10.460Z,45.90
2023-05-10T05:38:38.256Z,49.97
2023-05-10T05:41:05.829Z,42.60
2023-05-10T05:43:34.110Z,42.47
2023-05-10T05:46:03.121Z,41.70
2023-05-10T05:48:31.742Z,43.95
2023-05-10T05:50:59.324Z,42.35
2023-05-10T05:53:27.110Z,48.63
2023-05-10T05:55:56.723Z,40.75
2023-05-10T05:58:25.413Z,47.67
2023-05-10T06:00:53.660Z,38.78
2023-05-10T06:03:26.234Z,40.42
2023-05-10T06:05:53.868Z,41.05
2023-05-10T06:08:21.582Z,42.60
2023-05-10T06:10:49.305Z,42.20
2023-05-10T06:13:16.920Z,42.65
2023-05-10T06:15:51.999Z,47.50
2023-05-10T06:18:19.543Z,40.72
2023-05-10T06:20:47.245Z,46.00
2023-05-10T06:23:14.808Z,43.70
2023-05-10T06:25:42.684Z,47.45
2023-05-10T06:28:10.402Z,43.38
2023-05-10T06:30:38.086Z,42.85
2023-05-10T06:33:05.857Z,43.40
2023-05-10T06:35:34.513Z,38.80
2023-05-10T06:38:02.087Z,40.05
2023-05-10T06:40:29.714Z,42.40
2023-05-10T06:43:05.701Z,41.50
2023-05-10T06:45:33.361Z,36.17
2023-05-10T06:48:01.026Z,37.80
2023-05-10T06:50:28.601Z,34.55
2023-05-10T06:52:56.729Z,37.00
2023-05-10T06:55:31.117Z,38.55
2023-05-10T06:57:58.881Z,36.63
2023-05-10T07:00:26.920Z,37.38
2023-05-10T07:02:54.636Z,35.33
2023-05-10T07:05:22.986Z,35.85
2023-05-10T07:07:50.816Z,34.08
2023-05-10T07:10:18.692Z,37.03
2023-05-10T07:12:46.303Z,32.92
2023-05-10T07:15:14.022Z,34.47
2023-05-10T07:17:43.234Z,33.35
2023-05-10T07:20:13.237Z,29.73
2023-05-10T07:22:40.782Z,32.72
2023-05-10T07:25:08.769Z,33.25
2023-05-10T07:27:36.278Z,31.60
2023-05-10T07:30:04.244Z,32.50
2023-05-10T07:32:32.546Z,33.45
2023-05-10T07:35:00.397Z,30.92
2023-05-10T07:37:27.953Z,32.72
2023-05-10T07:39:55.552Z,32.67
2023-05-10T07:42:23.065Z,32.60
2023-05-10T07:44:50.613Z,34.97
2023-05-10T07:47:18.141Z,31.02
2023-05-10T07:49:45.764Z,34.90
2023-05-10T07:52:13.304Z,34.90
2023-05-10T07:54:40.802Z,35.05
2023-05-10T07:57:08.310Z,33.03
2023-05-10T07:59:35.864Z,34.40
2023-05-10T08:02:03.488Z,35.47
2023-05-10T08:04:31.184Z,38.83
2023-05-10T08:07:00.926Z,36.22
2023-05-10T08:09:34.733Z,40.55
2023-05-10T08:12:12.756Z,36.53
2023-05-10T08:14:50.558Z,36.33
2023-05-10T08:17:24.704Z,36.38
2023-05-10T08:19:52.456Z,32.80
2023-05-10T08:22:20.010Z,33.30
2023-05-10T08:24:50.905Z,34.85
2023-05-10T08:27:18.569Z,34.30
2023-05-10T08:29:50.177Z,35.78
2023-05-10T08:32:18.811Z,32.47
2023-05-10T08:34:51.566Z,29.52
2023-05-10T08:37:46.364Z,30.30
2023-05-10T08:40:16.445Z,29.38
2023-05-10T08:42:56.464Z,32.35
2023-05-10T08:45:26.036Z,31.33
2023-05-10T08:47:54.302Z,26.77
2023-05-10T08:50:22.967Z,28.25
2023-05-10T08:52:58.379Z,27.10
2023-05-10T08:55:26.068Z,26.20
2023-05-10T08:57:54.717Z,27.27
2023-05-10T09:00:24.098Z,27.27
2023-05-10T09:02:53.629Z,27.05
2023-05-10T09:05:21.398Z,27.55
2023-05-10T09:07:48.970Z,28.08
2023-05-10T09:10:19.275Z,29.88
2023-05-10T09:12:49.276Z,28.35
2023-05-10T09:15:20.166Z,28.42
2023-05-10T09:17:50.866Z,29.42
2023-05-10T09:20:18.754Z,28.38
2023-05-10T09:22:46.348Z,26.83
2023-05-10T09:25:18.391Z,27.60
2023-05-10T09:27:48.752Z,25.17
2023-05-10T09:30:29.863Z,27.90
2023-05-10T09:32:59.463Z,28.08
2023-05-10T09:35:33.136Z,27.42
2023-05-10T09:38:04.922Z,27.23
2023-05-10T09:40:33.451Z,25.42
2023-05-10T09:43:11.784Z,25.10
2023-05-10T09:45:39.462Z,26.25
2023-05-10T09:48:07.520Z,26.13
2023-05-10T09:50:35.508Z,26.85
2023-05-10T09:53:04.843Z,23.88
2023-05-10T09:55:47.059Z,23.85
2023-05-10T09:58:15.484Z,24.10
2023-05-10T10:00:46.374Z,22.77
2023-05-10T10:03:21.261Z,22.60
2023-05-10T10:05:49.732Z,24.80
2023-05-10T10:08:19.002Z,23.33
2023-05-10T10:10:47.953Z,22.17
2023-05-10T10:13:16.536Z,22.95
2023-05-10T10:15:45.648Z,20.63
2023-05-10T10:18:16.630Z,17.92
2023-05-10T10:20:44.767Z,20.33
2023-05-10T10:23:12.400Z,19.55
2023-05-10T10:25:40.752Z,22.02
2023-05-10T10:28:53.233Z,18.65
2023-05-10T10:31:42.906Z,20.65
2023-05-10T10:34:24.934Z,19.02
2023-05-10T10:36:52.676Z,19.35
2023-05-10T10:39:22.097Z,18.88
2023-05-10T10:41:59.033Z,16.73
2023-05-10T10:44:34.651Z,18.20
2023-05-10T10:47:31.986Z,18.83
2023-05-10T10:50:02.723Z,16.13
2023-05-10T10:52:44.270Z,16.80
2023-05-10T10:57:51.920Z,18.17
2023-05-10T11:00:41.810Z,15.85
2023-05-10T11:03:15.774Z,14.48
2023-05-10T11:05:45.603Z,15.63
2023-05-10T11:08:26.693Z,15.82
2023-05-10T11:11:01.797Z,17.90
2023-05-10T11:13:41.568Z,16.65
2023-05-10T11:16:27.969Z,15.18
2023-05-10T11:19:10.471Z,18.90
2023-05-10T11:21:50.045Z,16.23
2023-05-10T11:24:21.665Z,16.27
2023-05-10T11:29:21.063Z,15.87
2023-05-10T11:31:50.578Z,17.52
2023-05-10T11:34:26.171Z,18.50
2023-05-10T11:36:55.875Z,17.77
2023-05-10T11:44:11.385Z,16.40
2023-05-10T11:46:57.457Z,18.20
2023-05-10T11:49:48.178Z,17.13
2023-05-10T11:52:22.809Z,15.65
2023-05-10T11:55:04.595Z,16.17
2023-05-10T11:57:41.510Z,14.82
2023-05-10T12:00:22.775Z,15.32
2023-05-10T12:02:53.607Z,16.83
2023-05-10T12:05:25.403Z,16.63
2023-05-10T12:08:15.866Z,19.38
2023-05-10T12:10:46.229Z,16.02
2023-05-10T12:13:23.670Z,17.25
2023-05-10T12:15:51.519Z,14.90
2023-05-10T12:18:27.183Z,16.77
2023-05-10T12:21:11.381Z,17.65
2023-05-10T12:23:46.142Z,19.25
2023-05-10T12:26:32.849Z,17.13
2023-05-10T12:29:19.081Z,15.23
2023-05-10T12:31:59.235Z,16.50
2023-05-10T12:34:39.556Z,17.88
2023-05-10T12:37:08.292Z,18.15
2023-05-10T12:39:44.575Z,16.33
2023-05-10T12:42:16.670Z,16.92
2023-05-10T12:45:06.501Z,15.57
2023-05-10T12:47:35.532Z,16.52
2023-05-10T12:50:10.683Z,16.70
2023-05-10T12:52:54.809Z,17.52
2023-05-10T12:55:25.177Z,15.20
2023-05-10T12:58:31.458Z,14.18
2023-05-10T13:01:36.063Z,14.63
2023-05-10T13:04:12.327Z,16.98
2023-05-10T13:06:40.130Z,17.93
2023-05-10T13:09:08.002Z,15.75
2023-05-10T13:11:35.720Z,15.48
2023-05-10T13:14:04.332Z,13.90
2023-05-10T13:16:32.858Z,15.38
2023-05-10T13:19:00.565Z,12.75
2023-05-10T13:21:28.834Z,12.63
2023-05-10T13:23:56.558Z,13.63
2023-05-10T13:26:24.142Z,15.02
2023-05-10T13:28:52.745Z,13.38
2023-05-10T13:31:20.397Z,11.82
2023-05-10T13:33:47.950Z,12.93
2023-05-10T13:36:15.576Z,15.90
2023-05-10T13:38:43.240Z,12.82
2023-05-10T13:41:11.512Z,12.70
2023-05-10T13:43:39.011Z,14.63
2023-05-10T13:46:06.647Z,17.10
2023-05-10T13:48:35.261Z,14.45
2023-05-10T13:51:04.721Z,13.65
2023-05-10T13:53:32.273Z,14.10
2023-05-10T13:55:59.756Z,15.02
2023-05-10T13:58:30.632Z,15.80
2023-05-10T14:00:58.873Z,17.75
2023-05-10T14:03:26.515Z,21.30
2023-05-10T14:05:54.129Z,16.92
2023-05-10T14:08:21.728Z,24.85
2023-05-10T14:10:49.870Z,12.50
2023-05-10T14:13:17.432Z,9.70
2023-05-10T14:15:45.156Z,10.38
2023-05-10T14:18:12.767Z,13.15
2023-05-10T14:20:40.892Z,10.80
2023-05-10T14:23:10.505Z,8.95
2023-05-10T14:25:41.587Z,12.13
2023-05-10T14:28:09.296Z,11.68
2023-05-10T14:30:37.438Z,7.38
2023-05-10T14:33:05.121Z,7.68
2023-05-10T14:35:32.850Z,5.10
2023-05-10T14:38:00.511Z,6.40
2023-05-10T14:40:28.037Z,4.25
2023-05-10T14:42:55.715Z,4.30
2023-05-10T14:45:23.949Z,4.10
2023-05-10T14:47:51.632Z,5.00
2023-05-10T14:50:35.269Z,4.63
2023-05-10T14:53:04.302Z,5.68
2023-05-10T14:55:31.899Z,6.75
2023-05-10T14:57:59.819Z,5.28
2023-05-10T15:00:30.231Z,6.22
2023-05-10T15:02:58.506Z,6.10
2023-05-10T15:05:26.539Z,5.45
2023-05-10T15:07:54.532Z,6.65
2023-05-10T15:10:22.528Z,6.10
2023-05-10T15:12:51.408Z,6.80
2023-05-10T15:15:19.066Z,7.55
2023-05-10T15:17:46.976Z,6.93
2023-05-10T15:20:14.593Z,7.68
2023-05-10T15:22:42.173Z,7.30
2023-05-10T15:25:10.670Z,9.05
2023-05-10T15:27:38.320Z,7.85
2023-05-10T15:30:07.347Z,8.02
2023-05-10T15:32:34.845Z,10.43
2023-05-10T15:35:02.760Z,8.35
2023-05-10T15:37:30.482Z,9.88
2023-05-10T15:40:04.306Z,9.85
2023-05-10T15:42:37.283Z,11.23
2023-05-10T15:45:06.028Z,10.50
2023-05-10T15:47:33.960Z,10.18
2023-05-10T15:50:01.597Z,11.50
2023-05-10T15:52:29.311Z,11.88
2023-05-10T15:54:57.882Z,12.70
2023-05-10T15:57:25.552Z,13.05
2023-05-10T15:59:53.611Z,13.48
2023-05-10T16:02:22.489Z,14.27
2023-05-10T16:04:50.336Z,14.88
2023-05-10T16:07:18.036Z,15.25
2023-05-10T16:09:45.817Z,15.55
2023-05-10T16:12:13.445Z,15.98
2023-05-10T16:14:41.155Z,15.98
2023-05-10T16:17:08.736Z,16.50
2023-05-10T16:19:36.288Z,15.98
2023-05-10T16:22:03.969Z,16.48
2023-05-10T16:24:31.570Z,15.30
2023-05-10T16:26:59.319Z,17.05
2023-05-10T16:29:26.985Z,16.15
2023-05-10T16:31:55.031Z,16.45
2023-05-10T16:34:24.387Z,15.40
2023-05-10T16:36:54.042Z,15.63
2023-05-10T16:39:21.581Z,15.57
2023-05-10T16:41:51.271Z,16.02
2023-05-10T16:44:20.415Z,15.70
2023-05-10T16:46:48.879Z,16.17
2023-05-10T16:49:16.843Z,15.43
2023-05-10T16:51:44.410Z,16.88
2023-05-10T16:54:12.003Z,14.82
2023-05-10T16:56:39.577Z,13.68
2023-05-10T16:59:07.175Z,15.45
2023-05-10T17:01:34.849Z,14.48
2023-05-10T17:04:03.220Z,15.85
2023-05-10T17:06:31.209Z,15.70
2023-05-10T17:08:58.783Z,15.48
2023-05-10T17:11:26.324Z,14.45
2023-05-10T17:13:53.930Z,13.75
2023-05-10T17:16:21.670Z,14.77
2023-05-10T17:18:49.421Z,13.55
2023-05-10T17:21:17.106Z,14.40
2023-05-10T17:23:44.649Z,14.38
2023-05-10T17:26:12.450Z,14.07
2023-05-10T17:28:39.980Z,14.63
2023-05-10T17:31:07.791Z,15.52
2023-05-10T17:33:35.323Z,16.13
2023-05-10T17:36:02.866Z,15.75
2023-05-10T17:38:30.500Z,14.75
2023-05-10T17:40:58.106Z,16.75
2023-05-10T17:43:26.116Z,15.07
2023-05-10T17:45:53.747Z,15.88
2023-05-10T17:48:22.042Z,15.38
2023-05-10T17:50:51.102Z,16.13
2023-05-10T17:53:19.427Z,16.33
2023-05-10T17:55:47.138Z,16.15
2023-05-10T17:58:14.784Z,14.63
2023-05-10T18:00:42.556Z,16.08
2023-05-10T18:03:11.541Z,17.88
2023-05-10T18:05:39.521Z,16.83
2023-05-10T18:08:07.574Z,16.83
2023-05-10T18:10:39.334Z,18.83
2023-05-10T18:13:08.932Z,19.38
2023-05-10T18:15:37.117Z,17.95
2023-05-10T18:18:07.804Z,18.02
2023-05-10T18:20:43.487Z,18.73
2023-05-10T18:23:11.220Z,17.92
2023-05-10T18:25:39.068Z,19.38
2023-05-10T18:28:08.135Z,18.35
2023-05-10T18:30:35.690Z,20.23
2023-05-10T18:33:03.513Z,19.08
2023-05-10T18:35:31.211Z,20.70
2023-05-10T18:37:59.163Z,20.75
2023-05-10T18:40:27.608Z,21.17
2023-05-10T18:42:55.323Z,21.75
2023-05-10T18:45:22.915Z,22.50
2023-05-10T18:47:50.471Z,20.70
2023-05-10T18:50:19.698Z,20.73
2023-05-10T18:52:47.459Z,20.65
2023-05-10T18:55:15.259Z,21.42
2023-05-10T18:57:43.035Z,20.25
2023-05-10T19:00:12.606Z,21.73
2023-05-10T19:02:40.595Z,20.05
2023-05-10T19:05:09.403Z,20.52
2023-05-10T19:07:37.138Z,21.55
2023-05-10T19:10:05.286Z,21.73
2023-05-10T19:12:32.994Z,20.98
2023-05-10T19:15:00.787Z,20.05
2023-05-10T19:17:28.696Z,22.05
2023-05-10T19:19:56.691Z,19.02
2023-05-10T19:22:36.153Z,19.35
2023-05-10T19:25:13.034Z,20.23
2023-05-10T19:27:40.802Z,19.25
2023-05-10T19:30:09.154Z,19.10
2023-05-10T19:32:36.852Z,17.50
2023-05-10T19:35:05.133Z,14.27
2023-05-10T19:37:32.781Z,11.77
2023-05-10T19:40:00.377Z,11.13
2023-05-10T19:42:27.997Z,11.43
2023-05-10T19:44:55.605Z,12.70
2023-05-10T19:47:23.223Z,10.85
2023-05-10T19:49:50.969Z,11.68
2023-05-10T19:52:18.814Z,9.27
2023-05-10T19:54:46.401Z,10.15
2023-05-10T19:57:14.189Z,9.57
2023-05-10T19:59:41.705Z,8.32
2023-05-10T20:02:09.319Z,8.68
2023-05-10T20:04:36.850Z,8.25
2023-05-10T20:07:04.363Z,9.00
2023-05-10T20:09:31.915Z,8.52
2023-05-10T20:11:59.645Z,8.43
2023-05-10T20:14:27.235Z,9.77
2023-05-10T20:16:54.923Z,8.52
2023-05-10T20:19:27.349Z,9.02
2023-05-10T20:21:56.168Z,10.07
2023-05-10T20:24:24.003Z,11.00
2023-05-10T20:26:51.959Z,9.77
2023-05-10T20:29:19.902Z,10.43
2023-05-10T20:31:47.542Z,9.63
2023-05-10T20:34:15.323Z,8.70
2023-05-10T20:36:42.844Z,11.52
2023-05-10T20:39:10.724Z,8.85
2023-05-10T20:41:39.230Z,10.35
2023-05-10T20:44:06.938Z,9.90
2023-05-10T20:46:34.718Z,11.75
2023-05-10T20:49:02.558Z,11.50
2023-05-10T20:51:30.518Z,11.50
2023-05-10T20:53:58.134Z,12.77
2023-05-10T20:56:26.829Z,12.38
2023-05-10T20:58:54.385Z,12.45
2023-05-10T21:01:22.107Z,12.38
2023-05-10T21:03:49.722Z,13.45
2023-05-10T21:06:17.284Z,13.45
2023-05-10T21:08:44.888Z,12.35
2023-05-10T21:11:12.538Z,14.05
2023-05-10T21:13:40.115Z,15.60
2023-05-10T21:16:07.773Z,17.02
2023-05-10T21:18:36.019Z,17.23
2023-05-10T21:21:03.852Z,17.67
2023-05-10T21:23:33.775Z,17.60
2023-05-10T21:26:05.824Z,18.35
2023-05-10T21:28:33.509Z,18.90
2023-05-10T21:31:01.618Z,17.52
2023-05-10T21:33:29.225Z,20.00
2023-05-10T21:35:57.100Z,19.55
2023-05-10T21:38:24.761Z,18.02
2023-05-10T21:40:52.375Z,19.45
2023-05-10T21:43:20.237Z,18.40
2023-05-10T21:45:47.821Z,18.67
2023-05-10T21:48:15.421Z,18.05
2023-05-10T21:50:43.809Z,22.92
2023-05-10T21:53:11.807Z,19.88
2023-05-10T21:55:39.546Z,19.80
2023-05-10T21:58:07.166Z,17.70
2023-05-10T22:00:35.554Z,19.60
2023-05-10T22:03:03.242Z,22.02
2023-05-10T22:05:30.861Z,20.80
2023-05-10T22:07:58.505Z,21.80
2023-05-10T22:10:26.087Z,21.60
2023-05-10T22:12:53.713Z,19.90
2023-05-10T22:15:21.390Z,22.38
2023-05-10T22:17:48.946Z,23.15
2023-05-10T22:20:16.996Z,22.38
2023-05-10T22:22:45.340Z,19.83
2023-05-10T22:25:12.871Z,23.23
2023-05-10T22:27:40.778Z,23.98
2023-05-10T22:30:09.309Z,21.88
2023-05-10T22:32:36.979Z,21.88
2023-05-10T22:35:04.935Z,21.65
2023-05-10T22:37:32.655Z,19.80
2023-05-10T22:40:00.231Z,23.25
2023-05-10T22:42:27.821Z,22.95
2023-05-10T22:44:55.778Z,21.05
2023-05-10T22:47:23.383Z,21.80
2023-05-10T22:49:50.960Z,23.77
2023-05-10T22:52:18.465Z,22.50
2023-05-10T22:54:46.420Z,21.67
2023-05-10T22:57:14.455Z,22.55
2023-05-10T22:59:42.808Z,26.95
2023-05-10T23:02:10.585Z,21.40
2023-05-10T23:04:38.209Z,26.13
2023-05-10T23:07:06.022Z,23.38
2023-05-10T23:09:33.743Z,26.38
2023-05-10T23:12:01.302Z,22.70
2023-05-10T23:14:29.144Z,24.00
2023-05-10T23:16:56.931Z,22.48
2023-05-10T23:19:24.622Z,25.58
2023-05-10T23:21:52.191Z,23.65
2023-05-10T23:24:19.687Z,23.92
2023-05-10T23:26:47.359Z,23.38
2023-05-10T23:29:14.952Z,24.55
2023-05-10T23:31:45.612Z,24.98
2023-05-10T23:34:13.275Z,23.30
2023-05-10T23:36:40.920Z,25.20
2023-05-10T23:39:08.449Z,25.60
2023-05-10T23:41:36.033Z,23.65
2023-05-10T23:44:03.811Z,25.60
2023-05-10T23:46:31.430Z,24.90
2023-05-10T23:48:58.978Z,26.80
2023-05-10T23:51:27.310Z,25.88
2023-05-10T23:53:54.872Z,26.33
2023-05-10T23:56:22.492Z,27.63
2023-05-10T23:58:50.053Z,28.33
